sensor_id;sensor_type;location;lat;lon;timestamp;temperature;humidity
47600;DHT22;33323;52.124;6.018;2023-07-24T00:01:59;18.40;99.90
47600;DHT22;33323;52.124;6.018;2023-07-24T00:04:26;18.40;99.90
47600;DHT22;33323;52.124;6.018;2023-07-24T00:06:54;18.40;99.90
47600;DHT22;33323;52.124;6.018;2023-07-24T00:09:21;18.40;99.90
47600;DHT22;33323;52.124;6.018;2023-07-24T00:11:49;18.40;99.90
47600;DHT22;33323;52.124;6.018;2023-07-24T00:14:17;18.40;99.90
47600;DHT22;33323;52.124;6.018;2023-07-24T00:16:45;18.30;99.90
47600;DHT22;33323;52.124;6.018;2023-07-24T00:19:12;18.40;99.90
47600;DHT22;33323;52.124;6.018;2023-07-24T00:21:40;18.30;99.90
47600;DHT22;33323;52.124;6.018;2023-07-24T00:24:08;18.30;99.90
47600;DHT22;33323;52.124;6.018;2023-07-24T00:26:36;18.30;99.90
47600;DHT22;33323;52.124;6.018;2023-07-24T00:29:03;18.30;99.90
47600;DHT22;33323;52.124;6.018;2023-07-24T00:31:31;18.30;99.90
47600;DHT22;33323;52.124;6.018;2023-07-24T00:33:59;18.20;99.90
47600;DHT22;33323;52.124;6.018;2023-07-24T00:36:27;18.30;99.90
47600;DHT22;33323;52.124;6.018;2023-07-24T00:38:55;18.30;99.90
47600;DHT22;33323;52.124;6.018;2023-07-24T00:41:23;18.30;99.90
47600;DHT22;33323;52.124;6.018;2023-07-24T00:43:53;18.20;99.90
47600;DHT22;33323;52.124;6.018;2023-07-24T00:46:21;18.20;99.90
47600;DHT22;33323;52.124;6.018;2023-07-24T00:48:49;18.10;99.90
47600;DHT22;33323;52.124;6.018;2023-07-24T00:51:17;18.10;99.90
47600;DHT22;33323;52.124;6.018;2023-07-24T00:53:45;18.10;99.90
47600;DHT22;33323;52.124;6.018;2023-07-24T00:56:14;18.10;99.90
47600;DHT22;33323;52.124;6.018;2023-07-24T00:58:42;18.00;99.90
47600;DHT22;33323;52.124;6.018;2023-07-24T01:01:10;18.00;99.90
47600;DHT22;33323;52.124;6.018;2023-07-24T01:03:38;18.00;99.90
47600;DHT22;33323;52.124;6.018;2023-07-24T01:06:06;18.00;99.90
47600;DHT22;33323;52.124;6.018;2023-07-24T01:08:34;18.10;99.90
47600;DHT22;33323;52.124;6.018;2023-07-24T01:11:27;18.10;99.90
47600;DHT22;33323;52.124;6.018;2023-07-24T01:14:12;18.10;99.90
47600;DHT22;33323;52.124;6.018;2023-07-24T01:16:47;18.10;99.90
47600;DHT22;33323;52.124;6.018;2023-07-24T01:19:39;18.10;99.90
47600;DHT22;33323;52.124;6.018;2023-07-24T01:27:46;18.00;99.90
47600;DHT22;33323;52.124;6.018;2023-07-24T01:30:17;18.00;99.90
47600;DHT22;33323;52.124;6.018;2023-07-24T01:32:46;18.10;99.90
47600;DHT22;33323;52.124;6.018;2023-07-24T01:35:16;18.00;99.90
47600;DHT22;33323;52.124;6.018;2023-07-24T01:37:45;18.10;99.90
47600;DHT22;33323;52.124;6.018;2023-07-24T01:40:13;18.10;99.90
47600;DHT22;33323;52.124;6.018;2023-07-24T01:42:41;18.10;99.90
47600;DHT22;33323;52.124;6.018;2023-07-24T01:45:09;18.10;99.90
47600;DHT22;33323;52.124;6.018;2023-07-24T01:47:36;18.10;99.90
47600;DHT22;33323;52.124;6.018;2023-07-24T01:50:03;18.10;99.90
47600;DHT22;33323;52.124;6.018;2023-07-24T01:52:31;18.10;99.90
47600;DHT22;33323;52.124;6.018;2023-07-24T01:54:58;18.10;99.90
47600;DHT22;33323;52.124;6.018;2023-07-24T01:57:25;18.00;99.90
47600;DHT22;33323;52.124;6.018;2023-07-24T01:59:52;18.10;99.90
47600;DHT22;33323;52.124;6.018;2023-07-24T02:02:19;18.10;99.90
47600;DHT22;33323;52.124;6.018;2023-07-24T02:04:46;18.10;99.90
47600;DHT22;33323;52.124;6.018;2023-07-24T02:07:13;18.10;99.90
47600;DHT22;33323;52.124;6.018;2023-07-24T02:09:40;18.10;99.90
47600;DHT22;33323;52.124;6.018;2023-07-24T02:12:07;18.10;99.90
47600;DHT22;33323;52.124;6.018;2023-07-24T02:14:34;18.10;99.90
47600;DHT22;33323;52.124;6.018;2023-07-24T02:17:02;18.10;99.90
47600;DHT22;33323;52.124;6.018;2023-07-24T02:19:29;18.10;99.90
47600;DHT22;33323;52.124;6.018;2023-07-24T02:21:56;18.10;99.90
47600;DHT22;33323;52.124;6.018;2023-07-24T02:24:23;18.00;99.90
47600;DHT22;33323;52.124;6.018;2023-07-24T02:26:50;18.00;99.90
47600;DHT22;33323;52.124;6.018;2023-07-24T02:29:17;18.00;99.90
47600;DHT22;33323;52.124;6.018;2023-07-24T02:31:44;18.00;99.90
47600;DHT22;33323;52.124;6.018;2023-07-24T02:34:11;18.00;99.90
47600;DHT22;33323;52.124;6.018;2023-07-24T02:36:40;17.90;99.90
47600;DHT22;33323;52.124;6.018;2023-07-24T02:39:08;17.90;99.90
47600;DHT22;33323;52.124;6.018;2023-07-24T02:41:35;17.90;99.90
47600;DHT22;33323;52.124;6.018;2023-07-24T02:44:03;17.90;99.90
47600;DHT22;33323;52.124;6.018;2023-07-24T02:46:30;17.90;99.90
47600;DHT22;33323;52.124;6.018;2023-07-24T02:48:58;17.90;99.90
47600;DHT22;33323;52.124;6.018;2023-07-24T02:51:25;17.90;99.90
47600;DHT22;33323;52.124;6.018;2023-07-24T02:53:54;17.90;99.90
47600;DHT22;33323;52.124;6.018;2023-07-24T02:56:22;17.90;99.90
47600;DHT22;33323;52.124;6.018;2023-07-24T02:58:49;17.90;99.90
47600;DHT22;33323;52.124;6.018;2023-07-24T03:01:16;17.90;99.90
47600;DHT22;33323;52.124;6.018;2023-07-24T03:03:43;17.90;99.90
47600;DHT22;33323;52.124;6.018;2023-07-24T03:06:10;17.80;99.90
47600;DHT22;33323;52.124;6.018;2023-07-24T03:08:37;17.80;99.90
47600;DHT22;33323;52.124;6.018;2023-07-24T03:11:05;17.90;99.90
47600;DHT22;33323;52.124;6.018;2023-07-24T03:13:32;17.90;99.90
47600;DHT22;33323;52.124;6.018;2023-07-24T03:16:00;17.90;99.90
47600;DHT22;33323;52.124;6.018;2023-07-24T03:18:27;17.90;99.90
47600;DHT22;33323;52.124;6.018;2023-07-24T03:20:54;17.90;99.90
47600;DHT22;33323;52.124;6.018;2023-07-24T03:23:24;17.90;99.90
47600;DHT22;33323;52.124;6.018;2023-07-24T03:25:51;17.90;99.90
47600;DHT22;33323;52.124;6.018;2023-07-24T03:28:18;17.90;99.90
47600;DHT22;33323;52.124;6.018;2023-07-24T03:30:45;17.80;99.90
47600;DHT22;33323;52.124;6.018;2023-07-24T03:33:12;17.80;99.90
47600;DHT22;33323;52.124;6.018;2023-07-24T03:35:40;17.80;99.90
47600;DHT22;33323;52.124;6.018;2023-07-24T03:38:07;17.80;99.90
47600;DHT22;33323;52.124;6.018;2023-07-24T03:40:34;17.80;99.90
47600;DHT22;33323;52.124;6.018;2023-07-24T03:43:03;17.80;99.90
47600;DHT22;33323;52.124;6.018;2023-07-24T03:45:31;17.90;99.90
47600;DHT22;33323;52.124;6.018;2023-07-24T03:47:58;17.90;99.90
47600;DHT22;33323;52.124;6.018;2023-07-24T03:50:25;17.90;99.90
47600;DHT22;33323;52.124;6.018;2023-07-24T03:52:52;17.80;99.90
47600;DHT22;33323;52.124;6.018;2023-07-24T03:55:19;17.80;99.90
47600;DHT22;33323;52.124;6.018;2023-07-24T03:57:46;17.80;99.90
47600;DHT22;33323;52.124;6.018;2023-07-24T04:00:14;17.70;99.90
47600;DHT22;33323;52.124;6.018;2023-07-24T04:02:41;17.70;99.90
47600;DHT22;33323;52.124;6.018;2023-07-24T04:05:08;17.70;99.90
47600;DHT22;33323;52.124;6.018;2023-07-24T04:07:35;17.70;99.90
47600;DHT22;33323;52.124;6.018;2023-07-24T04:10:04;17.60;99.90
47600;DHT22;33323;52.124;6.018;2023-07-24T04:12:31;17.60;99.90
47600;DHT22;33323;52.124;6.018;2023-07-24T04:14:58;17.60;99.90
47600;DHT22;33323;52.124;6.018;2023-07-24T04:17:27;17.50;99.90
47600;DHT22;33323;52.124;6.018;2023-07-24T04:19:54;17.50;99.90
47600;DHT22;33323;52.124;6.018;2023-07-24T04:22:22;17.60;99.90
47600;DHT22;33323;52.124;6.018;2023-07-24T04:24:49;17.50;99.90
47600;DHT22;33323;52.124;6.018;2023-07-24T04:27:17;17.50;99.90
47600;DHT22;33323;52.124;6.018;2023-07-24T04:29:45;17.50;99.90
47600;DHT22;33323;52.124;6.018;2023-07-24T04:32:12;17.50;99.90
47600;DHT22;33323;52.124;6.018;2023-07-24T04:34:40;17.50;99.90
47600;DHT22;33323;52.124;6.018;2023-07-24T04:37:08;17.50;99.90
47600;DHT22;33323;52.124;6.018;2023-07-24T04:39:38;17.40;99.90
47600;DHT22;33323;52.124;6.018;2023-07-24T04:42:06;17.50;99.90
47600;DHT22;33323;52.124;6.018;2023-07-24T04:44:37;17.50;99.90
47600;DHT22;33323;52.124;6.018;2023-07-24T04:47:05;17.50;99.90
47600;DHT22;33323;52.124;6.018;2023-07-24T04:49:32;17.50;99.90
47600;DHT22;33323;52.124;6.018;2023-07-24T04:51:59;17.60;99.90
47600;DHT22;33323;52.124;6.018;2023-07-24T04:54:26;17.60;99.90
47600;DHT22;33323;52.124;6.018;2023-07-24T04:56:55;17.60;99.90
47600;DHT22;33323;52.124;6.018;2023-07-24T04:59:22;17.60;99.90
47600;DHT22;33323;52.124;6.018;2023-07-24T05:01:50;17.50;99.90
47600;DHT22;33323;52.124;6.018;2023-07-24T05:04:17;17.50;99.90
47600;DHT22;33323;52.124;6.018;2023-07-24T05:06:44;17.60;99.90
47600;DHT22;33323;52.124;6.018;2023-07-24T05:09:11;17.60;99.90
47600;DHT22;33323;52.124;6.018;2023-07-24T05:11:39;17.60;99.90
47600;DHT22;33323;52.124;6.018;2023-07-24T05:14:06;17.50;99.90
47600;DHT22;33323;52.124;6.018;2023-07-24T05:16:33;17.50;99.90
47600;DHT22;33323;52.124;6.018;2023-07-24T05:19:00;17.60;99.90
47600;DHT22;33323;52.124;6.018;2023-07-24T05:21:27;17.60;99.90
47600;DHT22;33323;52.124;6.018;2023-07-24T05:23:55;17.50;99.90
47600;DHT22;33323;52.124;6.018;2023-07-24T05:26:22;17.50;99.90
47600;DHT22;33323;52.124;6.018;2023-07-24T05:28:49;17.50;99.90
47600;DHT22;33323;52.124;6.018;2023-07-24T05:31:16;17.50;99.90
47600;DHT22;33323;52.124;6.018;2023-07-24T05:33:43;17.50;99.90
47600;DHT22;33323;52.124;6.018;2023-07-24T05:36:10;17.50;99.90
47600;DHT22;33323;52.124;6.018;2023-07-24T05:38:37;17.50;99.90
47600;DHT22;33323;52.124;6.018;2023-07-24T05:41:04;17.50;99.90
47600;DHT22;33323;52.124;6.018;2023-07-24T05:43:31;17.50;99.90
47600;DHT22;33323;52.124;6.018;2023-07-24T05:46:00;17.50;99.90
47600;DHT22;33323;52.124;6.018;2023-07-24T05:48:27;17.60;99.90
47600;DHT22;33323;52.124;6.018;2023-07-24T05:50:54;17.60;99.90
47600;DHT22;33323;52.124;6.018;2023-07-24T05:53:21;17.60;99.90
47600;DHT22;33323;52.124;6.018;2023-07-24T05:55:59;17.80;99.90
47600;DHT22;33323;52.124;6.018;2023-07-24T05:58:27;17.80;99.90
47600;DHT22;33323;52.124;6.018;2023-07-24T06:00:55;17.80;99.90
47600;DHT22;33323;52.124;6.018;2023-07-24T06:03:23;17.80;99.90
47600;DHT22;33323;52.124;6.018;2023-07-24T06:05:52;17.80;99.90
47600;DHT22;33323;52.124;6.018;2023-07-24T06:08:21;17.80;99.90
47600;DHT22;33323;52.124;6.018;2023-07-24T06:10:49;17.90;99.90
47600;DHT22;33323;52.124;6.018;2023-07-24T06:13:18;17.90;99.90
47600;DHT22;33323;52.124;6.018;2023-07-24T06:15:49;17.90;99.90
47600;DHT22;33323;52.124;6.018;2023-07-24T06:18:16;17.90;99.90
47600;DHT22;33323;52.124;6.018;2023-07-24T06:20:43;17.90;99.90
47600;DHT22;33323;52.124;6.018;2023-07-24T06:23:11;17.90;99.90
47600;DHT22;33323;52.124;6.018;2023-07-24T06:25:38;18.00;99.90
47600;DHT22;33323;52.124;6.018;2023-07-24T06:28:05;18.00;99.90
47600;DHT22;33323;52.124;6.018;2023-07-24T06:30:32;18.10;99.90
47600;DHT22;33323;52.124;6.018;2023-07-24T06:32:59;18.10;99.90
47600;DHT22;33323;52.124;6.018;2023-07-24T06:35:26;18.20;99.90
47600;DHT22;33323;52.124;6.018;2023-07-24T06:37:53;18.20;99.90
47600;DHT22;33323;52.124;6.018;2023-07-24T06:40:20;18.30;99.90
47600;DHT22;33323;52.124;6.018;2023-07-24T06:42:47;18.30;99.90
47600;DHT22;33323;52.124;6.018;2023-07-24T06:45:14;18.30;99.90
47600;DHT22;33323;52.124;6.018;2023-07-24T06:47:41;18.20;99.90
47600;DHT22;33323;52.124;6.018;2023-07-24T06:50:08;18.20;99.90
47600;DHT22;33323;52.124;6.018;2023-07-24T06:52:36;18.30;99.90
47600;DHT22;33323;52.124;6.018;2023-07-24T06:55:03;18.40;99.90
47600;DHT22;33323;52.124;6.018;2023-07-24T06:57:30;18.70;99.90
47600;DHT22;33323;52.124;6.018;2023-07-24T06:59:57;19.10;99.90
47600;DHT22;33323;52.124;6.018;2023-07-24T07:02:24;19.60;99.90
47600;DHT22;33323;52.124;6.018;2023-07-24T07:04:52;20.20;99.90
47600;DHT22;33323;52.124;6.018;2023-07-24T07:07:19;20.50;99.90
47600;DHT22;33323;52.124;6.018;2023-07-24T07:09:47;20.70;99.90
47600;DHT22;33323;52.124;6.018;2023-07-24T07:12:14;20.50;99.90
47600;DHT22;33323;52.124;6.018;2023-07-24T07:14:41;20.30;99.90
47600;DHT22;33323;52.124;6.018;2023-07-24T07:17:09;20.10;99.90
47600;DHT22;33323;52.124;6.018;2023-07-24T07:19:36;19.90;99.90
47600;DHT22;33323;52.124;6.018;2023-07-24T07:22:04;19.70;99.90
47600;DHT22;33323;52.124;6.018;2023-07-24T07:24:32;19.50;99.90
47600;DHT22;33323;52.124;6.018;2023-07-24T07:27:00;19.70;99.90
47600;DHT22;33323;52.124;6.018;2023-07-24T07:29:27;20.00;99.90
47600;DHT22;33323;52.124;6.018;2023-07-24T07:31:55;20.50;99.90
47600;DHT22;33323;52.124;6.018;2023-07-24T07:34:22;21.10;99.90
47600;DHT22;33323;52.124;6.018;2023-07-24T07:36:50;21.50;99.90
47600;DHT22;33323;52.124;6.018;2023-07-24T07:39:17;21.60;99.90
47600;DHT22;33323;52.124;6.018;2023-07-24T07:41:45;21.60;99.90
47600;DHT22;33323;52.124;6.018;2023-07-24T07:44:12;21.30;99.90
47600;DHT22;33323;52.124;6.018;2023-07-24T07:46:40;20.80;99.90
47600;DHT22;33323;52.124;6.018;2023-07-24T07:49:08;20.70;99.90
47600;DHT22;33323;52.124;6.018;2023-07-24T07:51:35;20.60;99.90
47600;DHT22;33323;52.124;6.018;2023-07-24T07:54:03;20.60;99.90
47600;DHT22;33323;52.124;6.018;2023-07-24T07:56:31;20.90;99.90
47600;DHT22;33323;52.124;6.018;2023-07-24T07:58:58;21.20;99.90
47600;DHT22;33323;52.124;6.018;2023-07-24T08:01:26;21.40;99.90
47600;DHT22;33323;52.124;6.018;2023-07-24T08:03:54;21.70;99.90
47600;DHT22;33323;52.124;6.018;2023-07-24T08:06:22;21.60;99.90
47600;DHT22;33323;52.124;6.018;2023-07-24T08:08:50;21.80;99.90
47600;DHT22;33323;52.124;6.018;2023-07-24T08:11:18;22.10;99.90
47600;DHT22;33323;52.124;6.018;2023-07-24T08:13:45;21.90;99.90
47600;DHT22;33323;52.124;6.018;2023-07-24T08:16:15;21.70;99.90
47600;DHT22;33323;52.124;6.018;2023-07-24T08:18:47;21.40;99.90
47600;DHT22;33323;52.124;6.018;2023-07-24T08:21:15;21.10;99.90
47600;DHT22;33323;52.124;6.018;2023-07-24T08:23:43;21.00;99.90
47600;DHT22;33323;52.124;6.018;2023-07-24T08:26:13;20.80;99.90
47600;DHT22;33323;52.124;6.018;2023-07-24T08:28:40;20.70;99.90
47600;DHT22;33323;52.124;6.018;2023-07-24T08:31:09;20.50;99.90
47600;DHT22;33323;52.124;6.018;2023-07-24T08:33:37;20.60;99.90
47600;DHT22;33323;52.124;6.018;2023-07-24T08:36:07;20.70;99.90
47600;DHT22;33323;52.124;6.018;2023-07-24T08:38:35;20.70;99.90
47600;DHT22;33323;52.124;6.018;2023-07-24T08:41:05;21.30;99.90
47600;DHT22;33323;52.124;6.018;2023-07-24T08:43:35;21.90;99.90
47600;DHT22;33323;52.124;6.018;2023-07-24T08:46:04;22.10;99.90
47600;DHT22;33323;52.124;6.018;2023-07-24T08:48:36;22.10;99.90
47600;DHT22;33323;52.124;6.018;2023-07-24T08:51:09;22.10;99.90
47600;DHT22;33323;52.124;6.018;2023-07-24T08:53:43;22.10;99.90
47600;DHT22;33323;52.124;6.018;2023-07-24T08:56:12;22.00;99.90
47600;DHT22;33323;52.124;6.018;2023-07-24T08:58:40;22.40;99.90
47600;DHT22;33323;52.124;6.018;2023-07-24T09:01:08;22.40;99.90
47600;DHT22;33323;52.124;6.018;2023-07-24T09:03:36;22.00;99.90
47600;DHT22;33323;52.124;6.018;2023-07-24T09:06:04;21.60;99.90
47600;DHT22;33323;52.124;6.018;2023-07-24T09:08:37;21.20;99.90
47600;DHT22;33323;52.124;6.018;2023-07-24T09:11:10;21.20;99.90
47600;DHT22;33323;52.124;6.018;2023-07-24T09:13:41;21.50;99.90
47600;DHT22;33323;52.124;6.018;2023-07-24T09:16:23;21.90;99.90
47600;DHT22;33323;52.124;6.018;2023-07-24T09:18:53;22.40;99.90
47600;DHT22;33323;52.124;6.018;2023-07-24T09:21:29;22.50;99.90
47600;DHT22;33323;52.124;6.018;2023-07-24T09:24:11;22.50;99.90
47600;DHT22;33323;52.124;6.018;2023-07-24T09:26:49;22.50;99.90
47600;DHT22;33323;52.124;6.018;2023-07-24T09:29:30;22.60;99.90
47600;DHT22;33323;52.124;6.018;2023-07-24T09:31:59;22.40;99.90
47600;DHT22;33323;52.124;6.018;2023-07-24T09:34:27;22.10;99.90
47600;DHT22;33323;52.124;6.018;2023-07-24T09:36:55;22.10;99.90
47600;DHT22;33323;52.124;6.018;2023-07-24T09:39:25;22.40;99.90
47600;DHT22;33323;52.124;6.018;2023-07-24T09:42:03;22.70;99.90
47600;DHT22;33323;52.124;6.018;2023-07-24T09:44:32;23.10;99.90
47600;DHT22;33323;52.124;6.018;2023-07-24T09:47:00;23.60;99.90
47600;DHT22;33323;52.124;6.018;2023-07-24T09:49:48;24.10;99.90
47600;DHT22;33323;52.124;6.018;2023-07-24T09:52:18;24.50;99.90
47600;DHT22;33323;52.124;6.018;2023-07-24T09:55:04;24.20;99.90
47600;DHT22;33323;52.124;6.018;2023-07-24T09:57:38;24.00;99.90
47600;DHT22;33323;52.124;6.018;2023-07-24T10:00:07;23.80;99.90
47600;DHT22;33323;52.124;6.018;2023-07-24T10:02:35;23.40;99.90
47600;DHT22;33323;52.124;6.018;2023-07-24T10:05:04;23.00;99.90
47600;DHT22;33323;52.124;6.018;2023-07-24T10:07:32;22.80;99.90
47600;DHT22;33323;52.124;6.018;2023-07-24T10:10:00;22.90;99.90
47600;DHT22;33323;52.124;6.018;2023-07-24T10:12:29;22.80;99.90
47600;DHT22;33323;52.124;6.018;2023-07-24T10:14:58;22.30;99.90
47600;DHT22;33323;52.124;6.018;2023-07-24T10:17:37;22.00;99.90
47600;DHT22;33323;52.124;6.018;2023-07-24T10:20:10;21.90;99.90
47600;DHT22;33323;52.124;6.018;2023-07-24T10:22:42;22.10;99.90
47600;DHT22;33323;52.124;6.018;2023-07-24T10:25:10;22.10;99.90
47600;DHT22;33323;52.124;6.018;2023-07-24T10:27:43;22.10;99.90
47600;DHT22;33323;52.124;6.018;2023-07-24T10:30:11;22.00;99.90
47600;DHT22;33323;52.124;6.018;2023-07-24T10:33:09;22.00;99.90
47600;DHT22;33323;52.124;6.018;2023-07-24T10:36:04;21.90;99.90
47600;DHT22;33323;52.124;6.018;2023-07-24T10:38:37;22.20;99.90
47600;DHT22;33323;52.124;6.018;2023-07-24T10:41:08;22.10;99.90
47600;DHT22;33323;52.124;6.018;2023-07-24T10:43:45;22.20;99.90
47600;DHT22;33323;52.124;6.018;2023-07-24T10:46:15;22.20;99.90
47600;DHT22;33323;52.124;6.018;2023-07-24T10:48:51;22.20;99.90
47600;DHT22;33323;52.124;6.018;2023-07-24T10:51:18;22.00;99.90
47600;DHT22;33323;52.124;6.018;2023-07-24T10:53:48;21.90;99.90
47600;DHT22;33323;52.124;6.018;2023-07-24T10:56:17;21.70;99.90
47600;DHT22;33323;52.124;6.018;2023-07-24T10:58:44;21.50;99.90
47600;DHT22;33323;52.124;6.018;2023-07-24T11:01:12;21.50;99.90
47600;DHT22;33323;52.124;6.018;2023-07-24T11:03:42;21.50;99.90
47600;DHT22;33323;52.124;6.018;2023-07-24T11:06:15;21.60;99.90
47600;DHT22;33323;52.124;6.018;2023-07-24T11:08:55;21.60;99.90
47600;DHT22;33323;52.124;6.018;2023-07-24T11:11:31;21.70;99.90
47600;DHT22;33323;52.124;6.018;2023-07-24T11:14:01;21.60;99.90
47600;DHT22;33323;52.124;6.018;2023-07-24T11:16:30;21.70;99.90
47600;DHT22;33323;52.124;6.018;2023-07-24T11:19:01;21.60;99.90
47600;DHT22;33323;52.124;6.018;2023-07-24T11:21:29;21.70;99.90
47600;DHT22;33323;52.124;6.018;2023-07-24T11:23:58;21.70;99.90
47600;DHT22;33323;52.124;6.018;2023-07-24T11:26:26;21.90;99.90
47600;DHT22;33323;52.124;6.018;2023-07-24T11:28:55;22.10;99.90
47600;DHT22;33323;52.124;6.018;2023-07-24T11:31:23;22.10;99.90
47600;DHT22;33323;52.124;6.018;2023-07-24T11:33:52;22.30;99.90
47600;DHT22;33323;52.124;6.018;2023-07-24T11:36:21;22.40;99.90
47600;DHT22;33323;52.124;6.018;2023-07-24T11:38:50;22.40;99.90
47600;DHT22;33323;52.124;6.018;2023-07-24T11:41:17;22.30;99.90
47600;DHT22;33323;52.124;6.018;2023-07-24T11:43:46;22.40;99.90
47600;DHT22;33323;52.124;6.018;2023-07-24T11:46:25;22.40;99.90
47600;DHT22;33323;52.124;6.018;2023-07-24T11:48:54;22.40;99.90
47600;DHT22;33323;52.124;6.018;2023-07-24T11:51:25;22.40;99.90
47600;DHT22;33323;52.124;6.018;2023-07-24T11:54:09;22.20;99.90
47600;DHT22;33323;52.124;6.018;2023-07-24T11:56:39;21.90;99.90
47600;DHT22;33323;52.124;6.018;2023-07-24T11:59:13;21.80;99.90
47600;DHT22;33323;52.124;6.018;2023-07-24T12:01:48;21.90;99.90
47600;DHT22;33323;52.124;6.018;2023-07-24T12:04:16;22.10;99.90
47600;DHT22;33323;52.124;6.018;2023-07-24T12:06:44;22.50;99.90
47600;DHT22;33323;52.124;6.018;2023-07-24T12:09:13;22.70;99.90
47600;DHT22;33323;52.124;6.018;2023-07-24T12:11:42;22.70;99.90
47600;DHT22;33323;52.124;6.018;2023-07-24T12:14:13;22.70;99.90
47600;DHT22;33323;52.124;6.018;2023-07-24T12:16:42;22.70;99.90
47600;DHT22;33323;52.124;6.018;2023-07-24T12:19:10;22.70;99.90
47600;DHT22;33323;52.124;6.018;2023-07-24T12:21:38;23.00;99.90
47600;DHT22;33323;52.124;6.018;2023-07-24T12:24:05;23.00;99.90
47600;DHT22;33323;52.124;6.018;2023-07-24T12:26:32;23.80;99.90
47600;DHT22;33323;52.124;6.018;2023-07-24T12:29:00;24.00;99.90
47600;DHT22;33323;52.124;6.018;2023-07-24T12:31:28;24.10;99.90
47600;DHT22;33323;52.124;6.018;2023-07-24T12:33:56;23.80;99.90
47600;DHT22;33323;52.124;6.018;2023-07-24T12:36:24;23.40;99.90
47600;DHT22;33323;52.124;6.018;2023-07-24T12:38:52;23.10;99.90
47600;DHT22;33323;52.124;6.018;2023-07-24T12:41:20;23.00;99.90
47600;DHT22;33323;52.124;6.018;2023-07-24T12:43:48;23.10;99.90
47600;DHT22;33323;52.124;6.018;2023-07-24T12:46:15;23.10;99.90
47600;DHT22;33323;52.124;6.018;2023-07-24T12:48:43;23.20;99.90
47600;DHT22;33323;52.124;6.018;2023-07-24T12:51:11;23.10;99.90
47600;DHT22;33323;52.124;6.018;2023-07-24T12:53:39;23.00;99.90
47600;DHT22;33323;52.124;6.018;2023-07-24T12:56:26;22.90;99.90
47600;DHT22;33323;52.124;6.018;2023-07-24T12:58:54;22.70;99.90
47600;DHT22;33323;52.124;6.018;2023-07-24T13:01:21;22.50;99.90
47600;DHT22;33323;52.124;6.018;2023-07-24T13:03:49;22.50;99.90
47600;DHT22;33323;52.124;6.018;2023-07-24T13:06:16;22.50;99.90
47600;DHT22;33323;52.124;6.018;2023-07-24T13:08:44;22.20;99.90
47600;DHT22;33323;52.124;6.018;2023-07-24T13:11:12;22.20;99.90
47600;DHT22;33323;52.124;6.018;2023-07-24T13:13:39;22.30;99.90
47600;DHT22;33323;52.124;6.018;2023-07-24T13:16:07;22.60;99.90
47600;DHT22;33323;52.124;6.018;2023-07-24T13:18:34;23.10;99.90
47600;DHT22;33323;52.124;6.018;2023-07-24T13:21:02;23.50;99.90
47600;DHT22;33323;52.124;6.018;2023-07-24T13:23:29;23.80;99.90
47600;DHT22;33323;52.124;6.018;2023-07-24T13:25:56;23.90;99.90
47600;DHT22;33323;52.124;6.018;2023-07-24T13:28:23;24.10;99.90
47600;DHT22;33323;52.124;6.018;2023-07-24T13:30:51;24.40;99.90
47600;DHT22;33323;52.124;6.018;2023-07-24T13:33:18;24.20;99.90
47600;DHT22;33323;52.124;6.018;2023-07-24T13:35:46;24.10;99.90
47600;DHT22;33323;52.124;6.018;2023-07-24T13:38:13;24.30;99.90
47600;DHT22;33323;52.124;6.018;2023-07-24T13:40:41;24.20;99.90
47600;DHT22;33323;52.124;6.018;2023-07-24T13:43:08;24.40;99.90
47600;DHT22;33323;52.124;6.018;2023-07-24T13:45:36;24.60;99.90
47600;DHT22;33323;52.124;6.018;2023-07-24T13:48:03;24.50;99.90
47600;DHT22;33323;52.124;6.018;2023-07-24T13:50:31;24.50;99.90
47600;DHT22;33323;52.124;6.018;2023-07-24T13:52:58;24.50;99.90
47600;DHT22;33323;52.124;6.018;2023-07-24T13:55:26;24.40;99.90
47600;DHT22;33323;52.124;6.018;2023-07-24T13:57:53;23.80;99.90
47600;DHT22;33323;52.124;6.018;2023-07-24T14:00:21;23.20;99.90
47600;DHT22;33323;52.124;6.018;2023-07-24T14:02:48;23.10;99.90
47600;DHT22;33323;52.124;6.018;2023-07-24T14:05:17;23.40;99.90
47600;DHT22;33323;52.124;6.018;2023-07-24T14:07:45;23.70;99.90
47600;DHT22;33323;52.124;6.018;2023-07-24T14:10:12;24.00;99.90
47600;DHT22;33323;52.124;6.018;2023-07-24T14:12:40;24.20;99.90
47600;DHT22;33323;52.124;6.018;2023-07-24T14:15:08;24.00;99.90
47600;DHT22;33323;52.124;6.018;2023-07-24T14:17:36;23.70;99.90
47600;DHT22;33323;52.124;6.018;2023-07-24T14:20:04;23.70;99.90
47600;DHT22;33323;52.124;6.018;2023-07-24T14:22:32;23.80;99.90
47600;DHT22;33323;52.124;6.018;2023-07-24T14:25:00;23.30;99.90
47600;DHT22;33323;52.124;6.018;2023-07-24T14:27:27;22.70;99.90
47600;DHT22;33323;52.124;6.018;2023-07-24T14:29:55;22.20;99.90
47600;DHT22;33323;52.124;6.018;2023-07-24T14:32:22;21.80;99.90
47600;DHT22;33323;52.124;6.018;2023-07-24T14:34:52;21.50;99.90
47600;DHT22;33323;52.124;6.018;2023-07-24T14:37:20;21.10;99.90
47600;DHT22;33323;52.124;6.018;2023-07-24T14:39:50;20.70;99.90
47600;DHT22;33323;52.124;6.018;2023-07-24T14:42:17;20.60;99.90
47600;DHT22;33323;52.124;6.018;2023-07-24T14:44:45;20.60;99.90
47600;DHT22;33323;52.124;6.018;2023-07-24T14:47:12;20.70;99.90
47600;DHT22;33323;52.124;6.018;2023-07-24T14:49:40;20.60;99.90
47600;DHT22;33323;52.124;6.018;2023-07-24T14:52:08;20.90;99.90
47600;DHT22;33323;52.124;6.018;2023-07-24T14:54:35;21.00;99.90
47600;DHT22;33323;52.124;6.018;2023-07-24T14:57:06;21.10;99.90
47600;DHT22;33323;52.124;6.018;2023-07-24T14:59:50;21.30;99.90
47600;DHT22;33323;52.124;6.018;2023-07-24T15:02:17;21.40;99.90
47600;DHT22;33323;52.124;6.018;2023-07-24T15:04:46;21.30;99.90
47600;DHT22;33323;52.124;6.018;2023-07-24T15:07:13;21.10;99.90
47600;DHT22;33323;52.124;6.018;2023-07-24T15:09:42;21.10;99.90
47600;DHT22;33323;52.124;6.018;2023-07-24T15:12:09;21.30;99.90
47600;DHT22;33323;52.124;6.018;2023-07-24T15:14:37;21.10;99.90
47600;DHT22;33323;52.124;6.018;2023-07-24T15:17:04;21.00;99.90
47600;DHT22;33323;52.124;6.018;2023-07-24T15:19:31;21.00;99.90
47600;DHT22;33323;52.124;6.018;2023-07-24T15:21:59;21.00;99.90
47600;DHT22;33323;52.124;6.018;2023-07-24T15:24:26;21.00;99.90
47600;DHT22;33323;52.124;6.018;2023-07-24T15:26:54;21.10;99.90
47600;DHT22;33323;52.124;6.018;2023-07-24T15:29:21;21.20;99.90
47600;DHT22;33323;52.124;6.018;2023-07-24T15:31:49;21.20;99.90
47600;DHT22;33323;52.124;6.018;2023-07-24T15:34:16;21.20;99.90
47600;DHT22;33323;52.124;6.018;2023-07-24T15:36:43;20.90;99.90
47600;DHT22;33323;52.124;6.018;2023-07-24T15:39:12;20.70;99.90
47600;DHT22;33323;52.124;6.018;2023-07-24T15:41:39;20.60;99.90
47600;DHT22;33323;52.124;6.018;2023-07-24T15:44:07;20.50;99.90
47600;DHT22;33323;52.124;6.018;2023-07-24T15:46:35;20.60;99.90